createdAt,value
2023-01-13T00:04:29.176Z,17.70
2023-01-13T00:09:32.036Z,15.00
2023-01-13T00:14:36.120Z,16.60
2023-01-13T00:19:39.139Z,18.50
2023-01-13T00:24:42.275Z,15.80
2023-01-13T00:29:45.509Z,15.70
2023-01-13T00:34:48.612Z,17.90
2023-01-13T00:39:52.628Z,14.40
2023-01-13T00:44:55.749Z,14.60
2023-01-13T00:49:58.592Z,13.50
2023-01-13T00:55:01.426Z,15.30
2023-01-13T01:00:06.516Z,16.50
2023-01-13T01:05:12.081Z,17.50
2023-01-13T01:10:15.135Z,17.80
2023-01-13T01:15:19.105Z,17.50
2023-01-13T01:20:21.965Z,14.60
2023-01-13T01:25:25.364Z,15.60
2023-01-13T01:30:28.240Z,15.10
2023-01-13T01:35:33.239Z,15.20
2023-01-13T01:40:36.126Z,16.30
2023-01-13T01:45:39.092Z,14.70
2023-01-13T01:50:42.015Z,16.10
2023-01-13T01:55:44.773Z,13.50
2023-01-13T02:00:50.164Z,15.50
2023-01-13T02:05:53.250Z,16.00
2023-01-13T02:10:56.359Z,15.10
2023-01-13T02:16:08.718Z,15.90
2023-01-13T02:21:48.346Z,16.90
2023-01-13T02:27:24.286Z,15.30
2023-01-13T02:32:46.917Z,16.00
2023-01-13T02:37:49.848Z,17.30
2023-01-13T02:43:44.689Z,13.00
2023-01-13T02:48:47.988Z,13.20
2023-01-13T02:53:58.542Z,14.60
2023-01-13T02:59:01.796Z,14.10
2023-01-13T03:04:15.199Z,12.90
2023-01-13T03:09:49.435Z,13.40
2023-01-13T03:15:21.548Z,15.90
2023-01-13T03:20:31.108Z,15.20
2023-01-13T03:25:41.518Z,11.00
2023-01-13T03:30:49.911Z,13.70
2023-01-13T03:35:55.902Z,15.10
2023-01-13T03:41:02.716Z,13.50
2023-01-13T03:46:11.766Z,16.90
2023-01-13T03:51:19.270Z,13.50
2023-01-13T03:56:38.920Z,12.60
2023-01-13T04:02:12.472Z,12.20
2023-01-13T04:07:24.691Z,12.50
2023-01-13T04:12:53.865Z,14.80
2023-01-13T04:18:20.464Z,13.30
2023-01-13T04:23:23.322Z,12.30
2023-01-13T04:28:26.331Z,16.30
2023-01-13T04:33:31.096Z,13.00
2023-01-13T04:38:35.461Z,13.80
2023-01-13T04:43:38.301Z,13.10
2023-01-13T04:48:42.277Z,14.00
2023-01-13T04:53:46.926Z,12.30
2023-01-13T04:58:49.768Z,14.60
2023-01-13T05:03:52.864Z,11.00
2023-01-13T05:08:55.989Z,11.50
2023-01-13T05:14:19.335Z,12.30
2023-01-13T05:19:22.231Z,11.70
2023-01-13T05:24:43.788Z,10.70
2023-01-13T05:29:46.603Z,9.90
2023-01-13T05:34:49.813Z,13.00
2023-01-13T05:40:11.267Z,12.40
2023-01-13T05:45:16.607Z,12.30
2023-01-13T05:50:19.466Z,11.90
2023-01-13T05:55:22.255Z,8.30
2023-01-13T06:00:28.428Z,11.60
2023-01-13T06:05:31.892Z,10.70
2023-01-13T06:10:35.045Z,10.70
2023-01-13T06:15:37.969Z,10.50
2023-01-13T06:20:40.782Z,10.60
2023-01-13T06:26:04.435Z,12.40
2023-01-13T06:31:07.908Z,8.70
2023-01-13T06:36:18.612Z,10.90
2023-01-13T06:41:40.491Z,11.00
2023-01-13T06:46:43.492Z,13.60
2023-01-13T06:51:46.657Z,11.80
2023-01-13T06:56:49.639Z,12.60
2023-01-13T07:01:53.010Z,10.60
2023-01-13T07:06:55.960Z,10.60
2023-01-13T07:11:58.791Z,12.90
2023-01-13T07:17:01.626Z,9.80
2023-01-13T07:22:04.423Z,10.00
2023-01-13T07:27:07.237Z,12.20
2023-01-13T07:32:10.286Z,12.00
2023-01-13T07:37:13.162Z,10.00
2023-01-13T07:42:35.007Z,11.30
2023-01-13T07:47:38.123Z,11.50
2023-01-13T07:52:41.021Z,12.90
2023-01-13T07:57:44.646Z,11.90
2023-01-13T08:02:47.454Z,11.40
2023-01-13T08:07:50.475Z,9.00
2023-01-13T08:13:12.038Z,10.80
2023-01-13T08:18:15.124Z,9.00
2023-01-13T08:23:19.119Z,9.80
2023-01-13T08:28:24.177Z,11.60
2023-01-13T08:33:27.762Z,9.50
2023-01-13T08:38:31.804Z,9.20
2023-01-13T08:43:34.635Z,10.10
2023-01-13T08:48:39.841Z,10.00
2023-01-13T08:53:42.794Z,12.10
2023-01-13T08:58:45.652Z,7.80
2023-01-13T09:03:48.437Z,8.30
2023-01-13T09:08:51.281Z,9.80
2023-01-13T09:13:54.257Z,9.20
2023-01-13T09:19:17.266Z,8.40
2023-01-13T09:24:20.225Z,9.90
2023-01-13T09:29:23.307Z,9.60
2023-01-13T09:34:45.848Z,8.00
2023-01-13T09:39:48.764Z,9.20
2023-01-13T09:45:02.985Z,8.50
2023-01-13T09:50:15.100Z,8.80
2023-01-13T09:55:37.457Z,11.90
2023-01-13T10:01:02.474Z,8.20
2023-01-13T10:06:20.256Z,10.50
2023-01-13T10:11:44.282Z,9.50
2023-01-13T10:17:15.600Z,9.80
2023-01-13T10:22:33.798Z,9.90
2023-01-13T10:27:40.888Z,14.20
2023-01-13T10:32:46.562Z,9.50
2023-01-13T10:37:57.083Z,10.30
2023-01-13T10:43:06.790Z,8.90
2023-01-13T10:48:14.723Z,9.60
2023-01-13T10:53:24.880Z,10.10
2023-01-13T10:58:28.315Z,10.00
2023-01-13T11:03:43.090Z,10.30
2023-01-13T11:08:49.368Z,11.10
2023-01-13T11:14:13.203Z,10.70
2023-01-13T11:19:17.303Z,11.70
2023-01-13T11:24:38.091Z,10.00
2023-01-13T11:30:10.425Z,9.30
2023-01-13T11:35:18.844Z,9.20
2023-01-13T11:40:36.948Z,7.20
2023-01-13T11:45:51.088Z,8.70
2023-01-13T11:51:15.155Z,8.50
2023-01-13T11:56:28.363Z,8.10
2023-01-13T12:02:04.620Z,9.90
2023-01-13T12:07:28.451Z,8.40
2023-01-13T12:12:45.549Z,9.80
2023-01-13T12:18:30.208Z,8.50
2023-01-13T12:23:53.066Z,9.30
2023-01-13T12:29:01.051Z,10.00
2023-01-13T12:34:18.270Z,10.50
2023-01-13T12:39:42.057Z,9.60
2023-01-13T12:45:09.901Z,9.00
2023-01-13T12:50:21.830Z,7.90
2023-01-13T12:55:44.081Z,10.70
2023-01-13T13:01:01.373Z,8.20
2023-01-13T13:06:19.970Z,8.70
2023-01-13T13:11:55.691Z,10.20
2023-01-13T13:17:01.213Z,8.70
2023-01-13T13:22:13.410Z,8.30
2023-01-13T13:27:36.961Z,7.80
2023-01-13T13:33:49.559Z,7.60
2023-01-13T13:39:41.248Z,9.30
2023-01-13T13:45:05.185Z,8.10
2023-01-13T13:50:14.745Z,9.30
2023-01-13T13:55:23.749Z,10.10
2023-01-13T14:00:35.599Z,10.00
2023-01-13T14:05:38.517Z,7.30
2023-01-13T14:10:43.352Z,10.10
2023-01-13T14:15:49.147Z,8.50
2023-01-13T14:20:59.555Z,9.90
2023-01-13T14:26:13.000Z,9.10
2023-01-13T14:31:15.895Z,10.50
2023-01-13T14:36:24.621Z,10.50
2023-01-13T14:41:28.463Z,9.80
2023-01-13T14:46:42.399Z,13.10
2023-01-13T14:51:45.315Z,13.80
2023-01-13T14:56:53.907Z,12.50
2023-01-13T15:01:58.044Z,13.10
2023-01-13T15:07:01.303Z,12.30
2023-01-13T15:12:23.440Z,16.50
2023-01-13T15:17:28.796Z,16.70
2023-01-13T15:22:31.629Z,18.00
2023-01-13T15:27:34.395Z,17.10
2023-01-13T15:32:38.657Z,15.70
2023-01-13T15:37:42.879Z,15.40
2023-01-13T15:43:04.458Z,14.20
2023-01-13T15:48:07.717Z,18.90
2023-01-13T15:53:14.511Z,17.60
2023-01-13T15:58:18.244Z,13.70
2023-01-13T16:03:21.148Z,15.10
2023-01-13T16:08:24.037Z,18.60
2023-01-13T16:13:26.925Z,19.00
2023-01-13T16:18:29.875Z,15.30
2023-01-13T16:23:32.639Z,16.30
2023-01-13T16:28:35.955Z,17.20
2023-01-13T16:33:39.094Z,16.10
2023-01-13T16:38:42.272Z,15.30
2023-01-13T16:43:45.966Z,16.70
2023-01-13T16:48:52.032Z,18.10
2023-01-13T16:53:54.887Z,17.90
2023-01-13T16:59:18.845Z,14.40
2023-01-13T17:04:23.537Z,15.00
2023-01-13T17:09:30.213Z,17.00
2023-01-13T17:14:33.085Z,17.40
2023-01-13T17:19:35.938Z,15.70
2023-01-13T17:24:38.816Z,16.80
2023-01-13T17:29:41.829Z,15.50
2023-01-13T17:34:46.126Z,21.50
2023-01-13T17:39:51.064Z,18.80
2023-01-13T17:44:55.223Z,20.20
2023-01-13T17:49:58.060Z,21.00
2023-01-13T17:55:01.015Z,18.00
2023-01-13T18:00:05.109Z,18.80
2023-01-13T18:05:08.862Z,17.70
2023-01-13T18:10:12.067Z,16.80
2023-01-13T18:15:14.874Z,26.40
2023-01-13T18:20:37.020Z,19.10
2023-01-13T18:25:58.488Z,18.70
2023-01-13T18:31:01.324Z,17.40
2023-01-13T18:36:08.417Z,15.80
2023-01-13T18:41:29.979Z,17.00
2023-01-13T18:46:33.007Z,16.80
2023-01-13T18:51:36.493Z,17.70
2023-01-13T18:56:42.544Z,16.80
2023-01-13T19:01:45.532Z,19.70
2023-01-13T19:06:51.510Z,23.50
2023-01-13T19:11:58.394Z,20.90
2023-01-13T19:17:08.840Z,20.10
2023-01-13T19:22:13.141Z,21.30
2023-01-13T19:27:17.274Z,18.70
2023-01-13T19:32:21.177Z,18.60
2023-01-13T19:37:30.064Z,16.10
2023-01-13T19:42:51.923Z,17.80
2023-01-13T19:47:57.073Z,19.00
2023-01-13T19:53:00.101Z,16.90
2023-01-13T19:58:04.069Z,14.60
2023-01-13T20:03:10.919Z,17.40
2023-01-13T20:08:13.782Z,18.40
2023-01-13T20:13:16.677Z,15.50
2023-01-13T20:18:21.975Z,15.20
2023-01-13T20:23:24.846Z,16.10
2023-01-13T20:28:27.785Z,14.80
2023-01-13T20:33:30.653Z,13.80
2023-01-13T20:38:39.697Z,12.80
2023-01-13T20:43:42.657Z,11.10
2023-01-13T20:48:45.699Z,12.50
2023-01-13T20:53:48.565Z,16.60
2023-01-13T20:58:51.932Z,18.10
2023-01-13T21:03:59.043Z,9.90
2023-01-13T21:09:02.127Z,10.10
2023-01-13T21:14:23.304Z,11.30
2023-01-13T21:19:26.272Z,10.60
2023-01-13T21:24:29.233Z,9.60
2023-01-13T21:29:32.104Z,10.00
2023-01-13T21:34:35.530Z,11.20
2023-01-13T21:39:38.410Z,8.70
2023-01-13T21:44:59.977Z,9.00
2023-01-13T21:50:08.007Z,8.40
2023-01-13T21:55:20.360Z,9.00
2023-01-13T22:00:28.135Z,7.00
2023-01-13T22:05:31.441Z,8.80
2023-01-13T22:10:34.812Z,8.40
2023-01-13T22:15:37.858Z,8.10
2023-01-13T22:20:42.121Z,7.60
2023-01-13T22:25:45.292Z,13.90
2023-01-13T22:30:49.939Z,9.80
2023-01-13T22:35:57.295Z,8.10
2023-01-13T22:41:07.289Z,7.40
2023-01-13T22:46:11.811Z,7.20
2023-01-13T22:51:16.123Z,7.10
2023-01-13T22:56:22.074Z,6.60
2023-01-13T23:01:26.715Z,6.10
2023-01-13T23:06:32.392Z,8.90
2023-01-13T23:11:35.609Z,7.10
2023-01-13T23:16:39.898Z,8.30
2023-01-13T23:21:42.814Z,9.50
2023-01-13T23:26:45.698Z,8.90
2023-01-13T23:31:49.708Z,11.20
2023-01-13T23:36:52.802Z,10.30
2023-01-13T23:41:55.964Z,10.20
2023-01-13T23:46:58.790Z,9.80
2023-01-13T23:52:01.666Z,10.40
2023-01-13T23:57:05.729Z,11.00
